createdAt,value
2019-01-12T00:00:50.158Z,-7.00
2019-01-12T00:03:39.022Z,-7.69
2019-01-12T00:06:29.036Z,-7.78
2019-01-12T00:09:18.112Z,-7.47
2019-01-12T00:12:07.540Z,-7.22
2019-01-12T00:14:56.935Z,-7.43
2019-01-12T00:17:46.765Z,-7.49
2019-01-12T00:20:36.283Z,-7.32
2019-01-12T00:23:25.192Z,-7.05
2019-01-12T00:26:14.969Z,-7.04
2019-01-12T00:29:04.541Z,-7.33
2019-01-12T00:31:53.894Z,-7.57
2019-01-12T00:34:43.739Z,-8.03
2019-01-12T00:37:33.267Z,-7.93
2019-01-12T00:40:22.866Z,-7.66
2019-01-12T00:43:12.147Z,-7.41
2019-01-12T00:46:01.458Z,-7.12
2019-01-12T00:48:50.853Z,-7.03
2019-01-12T00:51:40.287Z,-6.93
2019-01-12T00:54:29.365Z,-6.91
2019-01-12T00:57:18.789Z,-6.76
2019-01-12T01:00:12.585Z,-6.68
2019-01-12T01:03:01.946Z,-6.61
2019-01-12T01:05:51.337Z,-6.78
2019-01-12T01:08:40.614Z,-6.76
2019-01-12T01:11:29.504Z,-6.77
2019-01-12T01:14:19.018Z,-7.19
2019-01-12T01:17:08.688Z,-7.11
2019-01-12T01:20:02.571Z,-7.05
2019-01-12T01:22:52.932Z,-6.85
2019-01-12T01:25:42.475Z,-7.25
2019-01-12T01:28:31.936Z,-7.09
2019-01-12T01:31:20.734Z,-7.06
2019-01-12T01:34:10.434Z,-6.92
2019-01-12T01:37:00.343Z,-6.90
2019-01-12T01:39:49.508Z,-6.66
2019-01-12T01:42:39.150Z,-6.56
2019-01-12T01:45:28.928Z,-6.62
2019-01-12T01:48:18.232Z,-6.65
2019-01-12T01:51:10.061Z,-7.03
2019-01-12T01:53:59.414Z,-7.17
2019-01-12T01:56:48.759Z,-7.39
2019-01-12T01:59:38.066Z,-7.25
2019-01-12T02:02:27.460Z,-7.25
2019-01-12T02:05:16.763Z,-6.87
2019-01-12T02:08:06.391Z,-6.77
2019-01-12T02:10:55.187Z,-6.74
2019-01-12T02:13:44.415Z,-6.79
2019-01-12T02:16:33.800Z,-7.03
2019-01-12T02:19:25.203Z,-7.39
2019-01-12T02:22:14.667Z,-7.18
2019-01-12T02:25:04.085Z,-7.32
2019-01-12T02:27:55.900Z,-7.51
2019-01-12T02:30:45.432Z,-7.72
2019-01-12T02:33:34.719Z,-7.74
2019-01-12T02:36:24.005Z,-7.79
2019-01-12T02:39:13.256Z,-7.37
2019-01-12T02:42:02.250Z,-7.88
2019-01-12T02:44:51.934Z,-7.61
2019-01-12T02:47:41.526Z,-7.45
2019-01-12T02:50:31.937Z,-7.63
2019-01-12T02:53:21.403Z,-7.53
2019-01-12T02:56:10.663Z,-7.53
2019-01-12T02:58:59.969Z,-7.68
2019-01-12T03:01:49.350Z,-7.60
2019-01-12T03:04:38.420Z,-7.60
2019-01-12T03:07:27.874Z,-7.59
2019-01-12T03:10:18.556Z,-7.49
2019-01-12T03:13:07.345Z,-7.47
2019-01-12T03:15:56.445Z,-7.48
2019-01-12T03:18:45.724Z,-7.86
2019-01-12T03:21:35.196Z,-7.88
2019-01-12T03:24:24.728Z,-8.38
2019-01-12T03:27:13.993Z,-8.73
2019-01-12T03:30:03.227Z,-9.00
2019-01-12T03:32:52.814Z,-8.93
2019-01-12T03:35:42.069Z,-8.67
2019-01-12T03:38:31.575Z,-8.72
2019-01-12T03:41:23.986Z,-8.63
2019-01-12T03:44:13.718Z,-8.40
2019-01-12T03:47:02.970Z,-8.41
2019-01-12T03:49:52.487Z,-8.49
2019-01-12T03:52:43.043Z,-8.66
2019-01-12T03:55:32.377Z,-9.21
2019-01-12T03:58:21.703Z,-9.40
2019-01-12T04:01:11.459Z,-9.40
2019-01-12T04:04:00.878Z,-9.10
2019-01-12T04:06:49.868Z,-9.06
2019-01-12T04:09:39.117Z,-9.40
2019-01-12T04:12:31.884Z,-9.96
2019-01-12T04:15:21.487Z,-9.96
2019-01-12T04:18:10.694Z,-10.04
2019-01-12T04:20:59.997Z,-10.01
2019-01-12T04:23:49.136Z,-9.83
2019-01-12T04:26:38.821Z,-10.33
2019-01-12T04:29:28.972Z,-10.32
2019-01-12T04:32:18.336Z,-10.16
2019-01-12T04:35:08.577Z,-9.76
2019-01-12T04:37:57.992Z,-9.62
2019-01-12T04:40:47.049Z,-9.56
2019-01-12T04:43:36.935Z,-9.56
2019-01-12T04:46:26.804Z,-9.83
2019-01-12T04:49:16.159Z,-9.83
2019-01-12T04:52:06.173Z,-10.01
2019-01-12T04:54:57.082Z,-10.13
2019-01-12T04:57:46.514Z,-10.39
2019-01-12T05:00:35.795Z,-10.54
2019-01-12T05:03:25.291Z,-10.38
2019-01-12T05:06:14.755Z,-10.62
2019-01-12T05:09:05.502Z,-11.15
2019-01-12T05:11:54.545Z,-10.92
2019-01-12T05:14:44.231Z,-10.84
2019-01-12T05:17:34.656Z,-10.59
2019-01-12T05:20:24.278Z,-10.76
2019-01-12T05:23:13.538Z,-10.68
2019-01-12T05:26:02.986Z,-10.62
2019-01-12T05:28:51.962Z,-10.64
2019-01-12T05:31:44.605Z,-10.86
2019-01-12T05:34:39.429Z,-12.02
2019-01-12T05:37:28.987Z,-12.33
2019-01-12T05:40:18.645Z,-12.33
2019-01-12T05:43:08.395Z,-12.09
2019-01-12T05:45:58.142Z,-12.09
2019-01-12T05:48:47.609Z,-12.18
2019-01-12T05:51:39.297Z,-12.45
2019-01-12T05:54:32.026Z,-12.26
2019-01-12T05:57:22.458Z,-12.31
2019-01-12T06:00:29.878Z,-12.31
2019-01-12T06:03:19.007Z,-12.64
2019-01-12T06:06:08.969Z,-12.64
2019-01-12T06:08:58.541Z,-12.94
2019-01-12T06:11:48.098Z,-12.94
2019-01-12T06:14:37.740Z,-12.77
2019-01-12T06:17:26.998Z,-12.77
2019-01-12T06:20:16.874Z,-12.68
2019-01-12T06:23:06.281Z,-12.31
2019-01-12T06:25:55.860Z,-11.99
2019-01-12T06:28:45.382Z,-12.06
2019-01-12T06:31:35.145Z,-12.27
2019-01-12T06:34:24.512Z,-12.18
2019-01-12T06:37:14.263Z,-12.33
2019-01-12T06:40:06.252Z,-11.69
2019-01-12T06:42:55.818Z,-11.38
2019-01-12T06:45:45.674Z,-11.45
2019-01-12T06:48:35.160Z,-11.40
2019-01-12T06:51:24.505Z,-11.01
2019-01-12T06:54:13.493Z,-10.82
2019-01-12T06:57:03.486Z,-10.59
2019-01-12T06:59:52.957Z,-10.37
2019-01-12T07:02:42.690Z,-10.77
2019-01-12T07:05:32.795Z,-11.15
2019-01-12T07:08:22.244Z,-10.74
2019-01-12T07:11:11.665Z,-9.92
2019-01-12T07:14:01.382Z,-9.70
2019-01-12T07:16:50.926Z,-10.08
2019-01-12T07:19:40.129Z,-9.91
2019-01-12T07:22:29.766Z,-9.55
2019-01-12T07:25:19.462Z,-10.05
2019-01-12T07:28:08.387Z,-10.24
2019-01-12T07:30:57.431Z,-10.24
2019-01-12T07:33:46.777Z,-9.52
2019-01-12T07:36:36.378Z,-9.79
2019-01-12T07:39:25.779Z,-10.21
2019-01-12T07:42:16.581Z,-9.75
2019-01-12T07:45:06.768Z,-9.86
2019-01-12T07:47:55.783Z,-9.49
2019-01-12T07:50:45.038Z,-9.83
2019-01-12T07:53:34.125Z,-10.73
2019-01-12T07:56:24.695Z,-10.76
2019-01-12T07:59:14.835Z,-10.70
2019-01-12T08:02:04.228Z,-10.52
2019-01-12T08:04:53.707Z,-9.93
2019-01-12T08:07:43.255Z,-9.83
2019-01-12T08:10:32.973Z,-9.50
2019-01-12T08:13:22.557Z,-9.05
2019-01-12T08:16:11.625Z,-9.19
2019-01-12T08:19:00.946Z,-8.92
2019-01-12T08:21:50.757Z,-8.62
2019-01-12T08:24:40.143Z,-8.70
2019-01-12T08:27:28.744Z,-8.70
2019-01-12T08:30:18.984Z,-8.75
2019-01-12T08:33:08.590Z,-8.49
2019-01-12T08:35:57.930Z,-8.24
2019-01-12T08:38:47.310Z,-7.67
2019-01-12T08:41:39.001Z,-7.70
2019-01-12T08:44:29.468Z,-7.81
2019-01-12T08:47:18.762Z,-7.39
2019-01-12T08:50:11.287Z,-7.36
2019-01-12T08:53:00.558Z,-7.28
2019-01-12T08:55:49.678Z,-7.40
2019-01-12T08:58:39.039Z,-7.43
2019-01-12T09:01:27.935Z,-7.04
2019-01-12T09:04:17.426Z,-7.34
2019-01-12T09:07:06.110Z,-7.50
2019-01-12T09:09:55.357Z,-7.49
2019-01-12T09:12:46.797Z,-7.04
2019-01-12T09:15:36.243Z,-6.22
2019-01-12T09:18:25.858Z,-5.68
2019-01-12T09:21:15.163Z,-5.32
2019-01-12T09:24:04.925Z,-5.11
2019-01-12T09:26:54.262Z,-5.09
2019-01-12T09:29:44.093Z,-5.18
2019-01-12T09:32:33.534Z,-4.59
2019-01-12T09:35:22.968Z,-4.70
2019-01-12T09:38:12.401Z,-4.26
2019-01-12T09:41:01.894Z,-3.90
2019-01-12T09:43:51.421Z,-4.14
2019-01-12T09:46:40.770Z,-3.79
2019-01-12T09:49:29.958Z,-4.19
2019-01-12T09:52:19.544Z,-3.65
2019-01-12T09:55:09.030Z,-3.36
2019-01-12T09:57:58.358Z,-3.46
2019-01-12T10:00:47.592Z,-3.86
2019-01-12T10:03:37.543Z,-3.56
2019-01-12T10:06:26.599Z,-3.40
2019-01-12T10:09:15.754Z,-3.49
2019-01-12T10:12:05.124Z,-3.22
2019-01-12T10:14:54.763Z,-3.34
2019-01-12T10:17:44.122Z,-3.03
2019-01-12T10:20:33.506Z,-2.77
2019-01-12T10:23:22.777Z,-3.21
2019-01-12T10:26:12.148Z,-2.58
2019-01-12T10:29:01.385Z,-2.36
2019-01-12T10:31:50.698Z,-2.40
2019-01-12T10:34:40.101Z,-2.47
2019-01-12T10:37:29.979Z,-2.25
2019-01-12T10:40:19.962Z,-1.82
2019-01-12T10:43:09.264Z,-2.27
2019-01-12T10:45:58.820Z,-2.00
2019-01-12T10:48:47.604Z,-2.20
2019-01-12T10:51:37.162Z,-2.48
2019-01-12T10:54:26.491Z,-2.13
2019-01-12T10:57:15.537Z,-2.27
2019-01-12T11:00:08.043Z,-1.73
2019-01-12T11:02:57.823Z,-1.50
2019-01-12T11:05:47.116Z,-1.48
2019-01-12T11:08:36.685Z,-1.41
2019-01-12T11:11:25.660Z,-1.16
2019-01-12T11:14:14.930Z,-1.08
2019-01-12T11:17:04.165Z,-1.47
2019-01-12T11:19:54.006Z,-1.38
2019-01-12T11:22:43.465Z,-1.12
2019-01-12T11:25:32.775Z,-0.60
2019-01-12T11:28:21.529Z,-1.19
2019-01-12T11:31:12.092Z,-1.30
2019-01-12T11:34:01.437Z,-1.34
2019-01-12T11:36:50.373Z,-1.40
2019-01-12T11:39:39.701Z,-1.00
2019-01-12T11:42:28.918Z,-0.91
2019-01-12T11:45:19.101Z,-0.40
2019-01-12T11:48:08.630Z,-0.08
2019-01-12T11:51:06.442Z,-0.23
2019-01-12T11:53:56.005Z,-0.58
2019-01-12T11:56:45.560Z,-0.43
2019-01-12T11:59:35.044Z,0.00
2019-01-12T12:02:24.498Z,-0.43
2019-01-12T12:05:13.867Z,-0.81
2019-01-12T12:08:02.690Z,-0.87
2019-01-12T12:10:51.919Z,-0.84
2019-01-12T12:13:41.184Z,-0.40
2019-01-12T12:16:30.438Z,-0.50
2019-01-12T12:19:19.978Z,-0.42
2019-01-12T12:22:09.213Z,-0.74
2019-01-12T12:24:58.507Z,-0.75
2019-01-12T12:27:47.251Z,-0.52
2019-01-12T12:30:36.556Z,-0.52
2019-01-12T12:33:25.844Z,-0.54
2019-01-12T12:36:15.078Z,-0.61
2019-01-12T12:39:07.152Z,-0.84
2019-01-12T12:41:57.071Z,-0.55
2019-01-12T12:44:46.655Z,-0.75
2019-01-12T12:47:35.645Z,-1.54
2019-01-12T12:50:24.897Z,-1.94
2019-01-12T12:53:14.071Z,-1.80
2019-01-12T12:56:03.389Z,-2.17
2019-01-12T12:58:53.148Z,-1.75
2019-01-12T13:01:42.367Z,-1.71
2019-01-12T13:04:31.697Z,-1.16
2019-01-12T13:07:02.545Z,-0.75
2019-01-12T13:09:33.401Z,-0.80
2019-01-12T13:12:04.671Z,-0.52
2019-01-12T13:14:35.532Z,-0.07
2019-01-12T13:17:06.485Z,0.32
2019-01-12T13:19:37.378Z,0.67
2019-01-12T13:22:08.215Z,0.80
2019-01-12T13:24:39.406Z,0.84
2019-01-12T13:27:10.355Z,0.25
2019-01-12T13:29:41.264Z,0.77
2019-01-12T13:32:12.109Z,0.43
2019-01-12T13:34:43.000Z,0.18
2019-01-12T13:37:13.860Z,0.22
2019-01-12T13:39:44.722Z,-0.21
2019-01-12T13:42:15.682Z,0.12
2019-01-12T13:44:46.558Z,-0.86
2019-01-12T13:47:20.981Z,-1.05
2019-01-12T13:49:49.977Z,-1.29
2019-01-12T13:52:20.821Z,-1.08
2019-01-12T13:54:52.996Z,-2.22
2019-01-12T13:57:24.178Z,-3.19
2019-01-12T13:59:55.044Z,-3.36
2019-01-12T14:02:25.889Z,-3.56
2019-01-12T14:04:56.785Z,-3.89
2019-01-12T14:07:27.639Z,-3.89
2019-01-12T14:09:58.488Z,-3.89
2019-01-12T14:12:30.718Z,-4.02
2019-01-12T14:15:01.577Z,-4.23
2019-01-12T14:17:32.433Z,-4.32
2019-01-12T14:20:03.434Z,-4.38
2019-01-12T14:22:34.282Z,-4.40
2019-01-12T14:25:06.057Z,-4.73
2019-01-12T14:27:37.071Z,-4.82
2019-01-12T14:30:15.365Z,-4.96
2019-01-12T14:32:43.725Z,-4.90
2019-01-12T14:35:15.264Z,-4.95
2019-01-12T14:37:46.307Z,-4.96
2019-01-12T14:40:18.514Z,-4.97
2019-01-12T14:42:49.492Z,-5.05
2019-01-12T14:45:29.427Z,-4.97
2019-01-12T14:48:00.662Z,-4.99
2019-01-12T14:50:31.623Z,-5.05
2019-01-12T14:53:05.934Z,-5.07
2019-01-12T14:55:36.809Z,-5.14
2019-01-12T14:58:07.958Z,-5.09
2019-01-12T15:00:38.894Z,-5.13
2019-01-12T15:03:09.758Z,-5.13
2019-01-12T15:05:40.658Z,-5.11
2019-01-12T15:08:11.624Z,-5.15
2019-01-12T15:10:42.496Z,-5.28
2019-01-12T15:13:13.402Z,-5.37
2019-01-12T15:15:44.326Z,-5.58
2019-01-12T15:18:19.602Z,-5.67
2019-01-12T15:20:50.486Z,-5.79
2019-01-12T15:23:21.446Z,-5.60
2019-01-12T15:25:55.219Z,-5.55
2019-01-12T15:28:26.067Z,-5.57
2019-01-12T15:30:56.982Z,-5.62
2019-01-12T15:33:28.291Z,-5.52
2019-01-12T15:36:00.405Z,-5.50
2019-01-12T15:38:31.272Z,-5.62
2019-01-12T15:41:02.142Z,-5.51
2019-01-12T15:43:33.057Z,-5.43
2019-01-12T15:46:03.957Z,-5.53
2019-01-12T15:48:34.895Z,-5.47
2019-01-12T15:51:06.080Z,-5.47
2019-01-12T15:53:36.935Z,-5.65
2019-01-12T15:56:07.800Z,-5.74
2019-01-12T15:58:38.708Z,-5.70
2019-01-12T16:01:09.583Z,-5.69
2019-01-12T16:03:40.916Z,-5.75
2019-01-12T16:06:13.553Z,-5.63
2019-01-12T16:08:44.626Z,-5.63
2019-01-12T16:11:15.510Z,-5.64
2019-01-12T16:13:46.464Z,-5.54
2019-01-12T16:16:17.369Z,-5.50
2019-01-12T16:18:48.236Z,-5.56
2019-01-12T16:21:19.202Z,-5.63
2019-01-12T16:23:50.066Z,-5.77
2019-01-12T16:26:20.922Z,-5.87
2019-01-12T16:28:54.957Z,-5.98
2019-01-12T16:31:25.875Z,-5.88
2019-01-12T16:33:56.793Z,-5.81
2019-01-12T16:36:30.375Z,-5.70
2019-01-12T16:39:01.268Z,-5.71
2019-01-12T16:41:32.183Z,-5.63
2019-01-12T16:44:03.166Z,-5.54
2019-01-12T16:46:34.035Z,-5.43
2019-01-12T16:49:05.006Z,-5.44
2019-01-12T16:51:35.983Z,-5.57
2019-01-12T16:54:06.846Z,-5.59
2019-01-12T16:56:37.729Z,-5.61
2019-01-12T16:59:08.663Z,-5.64
2019-01-12T17:01:39.527Z,-5.62
2019-01-12T17:04:10.477Z,-5.72
2019-01-12T17:06:41.375Z,-5.87
2019-01-12T17:09:12.231Z,-5.91
2019-01-12T17:11:44.752Z,-6.04
2019-01-12T17:14:15.617Z,-5.58
2019-01-12T17:16:46.502Z,-5.38
2019-01-12T17:19:17.360Z,-5.41
2019-01-12T17:21:48.269Z,-5.25
2019-01-12T17:24:19.252Z,-5.29
2019-01-12T17:26:50.151Z,-5.22
2019-01-12T17:29:21.057Z,-5.26
2019-01-12T17:31:54.859Z,-5.35
2019-01-12T17:34:25.734Z,-5.39
2019-01-12T17:36:58.843Z,-5.37
2019-01-12T17:39:30.069Z,-5.38
2019-01-12T17:42:00.947Z,-5.36
2019-01-12T17:44:31.928Z,-5.35
2019-01-12T17:47:02.795Z,-5.32
2019-01-12T17:49:33.815Z,-5.31
2019-01-12T17:52:04.739Z,-5.26
2019-01-12T17:54:35.613Z,-5.20
2019-01-12T17:57:07.012Z,-5.28
2019-01-12T17:59:37.932Z,-5.28
2019-01-12T18:02:09.180Z,-5.27
2019-01-12T18:04:40.050Z,-5.43
2019-01-12T18:07:11.076Z,-5.50
2019-01-12T18:09:41.973Z,-5.24
2019-01-12T18:12:12.845Z,-5.13
2019-01-12T18:14:43.801Z,-4.97
2019-01-12T18:17:14.783Z,-5.25
2019-01-12T18:19:45.644Z,-5.18
2019-01-12T18:22:16.610Z,-5.06
2019-01-12T18:24:47.523Z,-5.05
2019-01-12T18:27:18.388Z,-5.06
2019-01-12T18:29:50.298Z,-5.17
2019-01-12T18:32:21.174Z,-5.34
2019-01-12T18:34:55.118Z,-5.30
2019-01-12T18:37:26.154Z,-5.28
2019-01-12T18:39:57.016Z,-5.38
2019-01-12T18:42:28.361Z,-5.46
2019-01-12T18:44:59.415Z,-5.44
2019-01-12T18:47:31.301Z,-5.43
2019-01-12T18:50:02.160Z,-5.48
2019-01-12T18:52:33.075Z,-5.52
2019-01-12T18:55:04.045Z,-5.55
2019-01-12T18:57:35.069Z,-5.72
2019-01-12T19:00:10.080Z,-5.79
2019-01-12T19:02:40.919Z,-5.86
2019-01-12T19:05:11.830Z,-5.83
2019-01-12T19:07:42.826Z,-5.91
2019-01-12T19:10:14.066Z,-5.94
2019-01-12T19:12:44.983Z,-6.07
2019-01-12T19:15:18.777Z,-6.08
2019-01-12T19:17:49.659Z,-6.11
2019-01-12T19:20:20.640Z,-6.12
2019-01-12T19:22:51.659Z,-6.16
2019-01-12T19:25:22.634Z,-6.21
2019-01-12T19:27:53.515Z,-6.15
2019-01-12T19:30:24.931Z,-6.15
2019-01-12T19:32:55.813Z,-6.23
2019-01-12T19:35:28.384Z,-6.23
2019-01-12T19:37:59.475Z,-6.10
2019-01-12T19:40:30.341Z,-6.09
2019-01-12T19:43:01.213Z,-6.09
2019-01-12T19:45:32.210Z,-6.00
2019-01-12T19:48:03.144Z,-6.00
2019-01-12T19:50:34.127Z,-6.04
2019-01-12T19:53:08.195Z,-6.11
2019-01-12T19:55:39.182Z,-6.10
2019-01-12T19:58:10.053Z,-6.23
2019-01-12T20:00:41.097Z,-6.32
2019-01-12T20:03:15.163Z,-6.36
2019-01-12T20:05:46.076Z,-6.38
2019-01-12T20:08:16.967Z,-6.40
2019-01-12T20:10:47.962Z,-6.43
2019-01-12T20:13:18.853Z,-6.56
2019-01-12T20:15:49.783Z,-6.60
2019-01-12T20:18:20.722Z,-6.72
2019-01-12T20:20:51.840Z,-6.93
2019-01-12T20:23:22.774Z,-7.02
2019-01-12T20:25:53.675Z,-6.97
2019-01-12T20:28:24.894Z,-7.07
2019-01-12T20:31:32.822Z,-7.12
2019-01-12T20:34:20.810Z,-7.14
2019-01-12T20:37:50.673Z,-7.21
2019-01-12T20:40:57.488Z,-7.15
2019-01-12T20:44:09.473Z,-7.15
2019-01-12T20:47:27.662Z,-7.08
2019-01-12T20:50:23.107Z,-7.01
2019-01-12T20:53:52.804Z,-7.13
2019-01-12T20:57:10.260Z,-7.34
2019-01-12T21:00:16.004Z,-7.59
2019-01-12T21:03:54.176Z,-7.57
2019-01-12T21:06:54.434Z,-7.54
2019-01-12T21:10:01.507Z,-7.70
2019-01-12T21:13:26.834Z,-7.72
2019-01-12T21:16:20.953Z,-7.78
2019-01-12T21:19:10.738Z,-8.01
2019-01-12T21:22:00.438Z,-7.95
2019-01-12T21:24:50.042Z,-7.86
2019-01-12T21:27:39.389Z,-7.89
2019-01-12T21:30:28.942Z,-7.81
2019-01-12T21:33:18.336Z,-7.86
2019-01-12T21:36:07.558Z,-7.88
2019-01-12T21:38:56.855Z,-7.96
2019-01-12T21:41:46.392Z,-7.80
2019-01-12T21:44:36.215Z,-7.78
2019-01-12T21:47:25.452Z,-7.74
2019-01-12T21:50:15.273Z,-7.66
2019-01-12T21:53:04.481Z,-7.62
2019-01-12T21:55:54.084Z,-7.75
2019-01-12T21:58:43.754Z,-7.76
2019-01-12T22:01:36.377Z,-7.70
2019-01-12T22:04:23.512Z,-7.74
2019-01-12T22:07:12.946Z,-7.71
2019-01-12T22:10:02.360Z,-7.81
2019-01-12T22:12:51.763Z,-7.70
2019-01-12T22:15:41.027Z,-7.85
2019-01-12T22:18:30.096Z,-7.86
2019-01-12T22:21:19.269Z,-7.99
2019-01-12T22:24:08.531Z,-7.94
2019-01-12T22:26:58.132Z,-8.01
2019-01-12T22:29:50.018Z,-8.06
2019-01-12T22:32:38.146Z,-8.34
2019-01-12T22:35:27.050Z,-8.94
2019-01-12T22:38:16.760Z,-9.30
2019-01-12T22:41:07.704Z,-9.03
2019-01-12T22:43:57.874Z,-8.68
2019-01-12T22:46:46.651Z,-8.68
2019-01-12T22:49:36.171Z,-8.89
2019-01-12T22:52:25.010Z,-8.77
2019-01-12T22:55:15.045Z,-9.10
2019-01-12T22:58:04.717Z,-9.36
2019-01-12T23:04:33.233Z,-9.48
2019-01-12T23:07:22.716Z,-9.72
2019-01-12T23:10:12.125Z,-9.72
2019-01-12T23:13:01.343Z,-9.50
2019-01-12T23:15:50.655Z,-9.52
2019-01-12T23:18:39.964Z,-9.52
2019-01-12T23:21:29.203Z,-9.35
2019-01-12T23:24:18.490Z,-9.44
2019-01-12T23:27:07.853Z,-9.44
2019-01-12T23:29:56.628Z,-9.40
2019-01-12T23:32:46.054Z,-9.59
2019-01-12T23:35:35.775Z,-9.58
2019-01-12T23:38:25.260Z,-9.78
2019-01-12T23:41:14.529Z,-9.63
2019-01-12T23:44:14.928Z,-9.88
2019-01-12T23:47:05.127Z,-10.14
2019-01-12T23:49:54.584Z,-10.41
2019-01-12T23:52:47.026Z,-10.63
2019-01-12T23:55:36.534Z,-10.70
2019-01-12T23:58:25.817Z,-11.15
